VOHY/HYD METAR and TAF weather

Enter ICAO airport designator
Station Type Date Time Source
VOHY METAR 2020/12/06 01:30 UTC NOAA

VOHY 060130Z 00000KT 3000 BR NSC 12/10 Q1018 NOSIG


Station Type Date Time Source
VOHY Decoded METAR 2020/12/06 01:30 UTC NOAA

Hyderabad Airport, India (VOHY) 17-27N 078-28E 545M
Dec 05, 2020 - 08:30 PM EST / 2020.12.06 0130 UTC
Wind: Calm:0
Visibility: 1 mile(s):0
Weather: mist
Temperature: 53 F (12 C)
Dew Point: 50 F (10 C)
Relative Humidity: 87%
Pressure (altimeter): 30.06 in. Hg (1018 hPa)
ob: VOHY 060130Z 00000KT 3000 BR NSC 12/10 Q1018 NOSIG
cycle: 1

Station Type Date Time Source
VOHY TAF 2020/11/26 00:00 UTC NOAA

TAF VOHY 262300Z 2700/2709 08008KT 4000 BR DZ SCT010 SCT015 BKN080
TEMPO 2700/2704 1500 TSRA +RA BR SCT008 SCT025 FEW030CB OVC080
BECMG 2703/2705 06008KT 5000 HZ SCT015 BKN100
TEMPO 2704/2709 3000 BR RA TSRA SCT010 SC015 FEW030CB OVC080

Example: see airport list